createdAt,value
2022-08-02T00:00:39.371Z,87764.50
2022-08-02T00:03:06.742Z,87769.03
2022-08-02T00:05:34.055Z,87764.84
2022-08-02T00:08:01.886Z,87759.91
2022-08-02T00:10:30.442Z,87746.63
2022-08-02T00:12:58.220Z,87743.94
2022-08-02T00:15:26.283Z,87730.63
2022-08-02T00:17:53.536Z,87721.50
2022-08-02T00:20:20.916Z,87731.22
2022-08-02T00:22:48.292Z,87741.25
2022-08-02T00:25:15.546Z,87748.94
2022-08-02T00:27:42.834Z,87742.50
2022-08-02T00:30:10.727Z,87738.41
2022-08-02T00:32:37.956Z,87742.56
2022-08-02T00:35:05.848Z,87740.66
2022-08-02T00:37:33.044Z,87740.75
2022-08-02T00:40:00.232Z,87730.09
2022-08-02T00:42:27.381Z,87741.56
2022-08-02T00:44:54.562Z,87740.03
2022-08-02T00:47:21.778Z,87737.03
2022-08-02T00:49:49.093Z,87735.13
2022-08-02T00:52:16.338Z,87737.03
2022-08-02T00:54:43.589Z,87730.94
2022-08-02T00:57:12.161Z,87723.66
2022-08-02T00:59:39.733Z,87711.03
2022-08-02T01:02:06.976Z,87689.66
2022-08-02T01:04:34.294Z,87675.13
2022-08-02T01:07:12.834Z,87676.72
2022-08-02T01:09:45.485Z,87695.41
2022-08-02T01:12:14.371Z,87701.41
2022-08-02T01:14:49.762Z,87705.78
2022-08-02T01:17:32.976Z,87705.84
2022-08-02T01:20:41.972Z,87711.19
2022-08-02T01:23:39.084Z,87720.28
2022-08-02T01:26:24.770Z,87733.97
2022-08-02T01:29:02.688Z,87736.66
2022-08-02T01:32:08.491Z,87738.56
2022-08-02T01:35:07.862Z,87757.66
2022-08-02T01:38:07.508Z,87767.84
2022-08-02T01:40:39.687Z,87756.47
2022-08-02T01:43:12.250Z,87759.91
2022-08-02T01:45:42.805Z,87762.25
2022-08-02T01:48:13.174Z,87761.47
2022-08-02T01:50:43.821Z,87761.13
2022-08-02T01:53:14.065Z,87756.94
2022-08-02T01:55:57.839Z,87759.22
2022-08-02T01:58:31.041Z,87765.97
2022-08-02T02:01:01.016Z,87772.19
2022-08-02T02:03:33.716Z,87774.63
2022-08-02T02:06:06.767Z,87779.22
2022-08-02T02:08:41.656Z,87783.03
2022-08-02T02:12:09.429Z,87792.63
2022-08-02T02:14:03.445Z,87805.44
2022-08-02T02:16:33.494Z,87802.44
2022-08-02T02:19:04.050Z,87793.28
2022-08-02T02:21:31.759Z,87798.59
2022-08-02T02:24:00.147Z,87798.59
2022-08-02T02:26:31.377Z,87799.75
2022-08-02T02:29:04.418Z,87808.63
2022-08-02T02:31:40.752Z,87814.63
2022-08-02T02:34:18.060Z,87816.13
2022-08-02T02:36:51.433Z,87817.66
2022-08-02T02:39:23.447Z,87824.56
2022-08-02T02:41:53.463Z,87820.78
2022-08-02T02:44:22.789Z,87827.66
2022-08-02T02:46:55.494Z,87820.88
2022-08-02T02:49:25.369Z,87827.38
2022-08-02T02:51:53.834Z,87829.63
2022-08-02T02:54:30.633Z,87825.13
2022-08-02T02:57:03.455Z,87817.84
2022-08-02T02:59:32.753Z,87820.16
2022-08-02T03:02:01.368Z,87811.81
2022-08-02T03:04:55.382Z,87813.31
2022-08-02T03:07:18.127Z,87807.91
2022-08-02T03:09:54.405Z,87799.53
2022-08-02T03:12:28.825Z,87801.88
2022-08-02T03:15:00.731Z,87799.63
2022-08-02T03:17:40.847Z,87794.66
2022-08-02T03:20:11.608Z,87787.50
2022-08-02T03:22:39.233Z,87791.31
2022-08-02T03:25:08.423Z,87790.94
2022-08-02T03:27:36.624Z,87790.56
2022-08-02T03:30:06.926Z,87781.47
2022-08-02T03:32:38.375Z,87787.16
2022-08-02T03:35:08.140Z,87777.63
2022-08-02T03:37:37.785Z,87787.63
2022-08-02T03:40:10.900Z,87785.00
2022-08-02T03:42:39.477Z,87783.50
2022-08-02T03:45:10.176Z,87784.31
2022-08-02T03:47:39.601Z,87786.97
2022-08-02T03:50:10.694Z,87788.50
2022-08-02T03:52:38.920Z,87786.97
2022-08-02T03:55:06.986Z,87782.06
2022-08-02T03:57:38.191Z,87786.72
2022-08-02T04:00:07.415Z,87789.03
2022-08-02T04:02:35.743Z,87801.34
2022-08-02T04:05:04.304Z,87794.16
2022-08-02T04:08:31.811Z,87797.28
2022-08-02T04:10:19.632Z,87805.34
2022-08-02T04:12:47.256Z,87795.06
2022-08-02T04:15:16.067Z,87800.81
2022-08-02T04:17:56.681Z,87802.78
2022-08-02T04:20:29.912Z,87800.91
2022-08-02T04:23:07.369Z,87805.91
2022-08-02T04:25:40.228Z,87810.06
2022-08-02T04:28:15.584Z,87808.97
2022-08-02T04:30:47.175Z,87807.50
2022-08-02T04:33:15.685Z,87819.81
2022-08-02T04:35:43.774Z,87830.06
2022-08-02T04:38:15.694Z,87826.63
2022-08-02T04:40:52.193Z,87829.78
2022-08-02T04:43:20.253Z,87834.56
2022-08-02T04:45:52.510Z,87827.00
2022-08-02T04:48:20.867Z,87824.09
2022-08-02T04:50:48.897Z,87828.97
2022-08-02T04:53:17.028Z,87835.81
2022-08-02T04:55:44.898Z,87830.50
2022-08-02T04:58:40.869Z,87833.50
2022-08-02T05:01:08.708Z,87831.13
2022-08-02T05:03:36.286Z,87834.91
2022-08-02T05:06:03.832Z,87830.34
2022-08-02T05:08:53.215Z,87828.06
2022-08-02T05:11:30.038Z,87832.25
2022-08-02T05:14:07.641Z,87836.44
2022-08-02T05:16:35.536Z,87842.13
2022-08-02T05:19:03.510Z,87836.78
2022-08-02T05:21:31.783Z,87837.53
2022-08-02T05:23:59.157Z,87836.81
2022-08-02T05:26:26.336Z,87839.03
2022-08-02T05:28:53.680Z,87832.56
2022-08-02T05:31:20.871Z,87829.13
2022-08-02T05:33:48.062Z,87826.00
2022-08-02T05:36:15.750Z,87824.09
2022-08-02T05:38:43.117Z,87833.56
2022-08-02T05:41:19.091Z,87825.91
2022-08-02T05:43:47.499Z,87820.91
2022-08-02T05:46:14.819Z,87820.16
2022-08-02T05:48:42.048Z,87810.16
2022-08-02T05:51:36.886Z,87822.72
2022-08-02T05:54:27.624Z,87822.66
2022-08-02T05:57:04.839Z,87821.13
2022-08-02T06:00:07.776Z,87828.31
2022-08-02T06:02:43.890Z,87826.06
2022-08-02T06:05:20.915Z,87831.41
2022-08-02T06:07:50.097Z,87830.19
2022-08-02T06:10:23.069Z,87834.69
2022-08-02T06:13:01.246Z,87839.69
2022-08-02T06:15:28.893Z,87854.84
2022-08-02T06:17:57.433Z,87857.41
2022-08-02T06:20:27.275Z,87847.41
2022-08-02T06:22:59.031Z,87846.31
2022-08-02T06:25:50.424Z,87852.13
2022-08-02T06:28:19.552Z,87858.69
2022-08-02T06:30:47.394Z,87851.03
2022-08-02T06:33:24.206Z,87852.50
2022-08-02T06:36:32.469Z,87854.44
2022-08-02T06:39:08.485Z,87861.69
2022-08-02T06:41:41.823Z,87860.53
2022-08-02T06:44:43.071Z,87857.84
2022-08-02T06:47:11.065Z,87855.91
2022-08-02T06:49:51.714Z,87857.47
2022-08-02T06:52:30.619Z,87857.06
2022-08-02T06:55:01.266Z,87860.47
2022-08-02T06:57:29.967Z,87860.81
2022-08-02T06:59:57.679Z,87853.94
2022-08-02T07:02:25.546Z,87856.13
2022-08-02T07:04:52.877Z,87861.81
2022-08-02T07:07:20.181Z,87860.19
2022-08-02T07:09:56.275Z,87862.31
2022-08-02T07:12:30.308Z,87866.44
2022-08-02T07:15:02.874Z,87860.72
2022-08-02T07:17:30.678Z,87856.00
2022-08-02T07:19:59.150Z,87860.44
2022-08-02T07:22:28.285Z,87855.06
2022-08-02T07:24:59.294Z,87854.59
2022-08-02T07:27:27.907Z,87858.28
2022-08-02T07:29:55.819Z,87858.22
2022-08-02T07:32:26.385Z,87854.72
2022-08-02T07:34:55.650Z,87843.19
2022-08-02T07:37:53.306Z,87839.28
2022-08-02T07:40:20.059Z,87838.81
2022-08-02T07:42:51.323Z,87840.59
2022-08-02T07:45:19.974Z,87836.28
2022-08-02T07:47:47.452Z,87832.78
2022-08-02T07:50:18.861Z,87827.72
2022-08-02T07:52:47.287Z,87831.81
2022-08-02T07:55:16.830Z,87822.56
2022-08-02T07:57:46.791Z,87826.66
2022-08-02T08:00:16.058Z,87828.09
2022-08-02T08:02:44.414Z,87825.81
2022-08-02T08:05:12.365Z,87829.09
2022-08-02T08:07:40.023Z,87831.34
2022-08-02T08:10:08.500Z,87832.06
2022-08-02T08:12:47.578Z,87830.13
2022-08-02T08:15:14.846Z,87830.97
2022-08-02T08:17:42.015Z,87827.53
2022-08-02T08:20:14.030Z,87825.66
2022-08-02T08:22:43.052Z,87826.78
2022-08-02T08:25:10.706Z,87825.94
2022-08-02T08:27:38.333Z,87830.19
2022-08-02T08:30:06.232Z,87832.41
2022-08-02T08:32:33.459Z,87825.19
2022-08-02T08:35:00.889Z,87825.13
2022-08-02T08:37:38.354Z,87826.63
2022-08-02T08:40:10.823Z,87822.03
2022-08-02T08:42:39.719Z,87822.03
2022-08-02T08:45:08.278Z,87819.50
2022-08-02T08:47:42.392Z,87820.66
2022-08-02T08:50:24.738Z,87823.19
2022-08-02T08:53:08.083Z,87812.94
2022-08-02T08:55:37.972Z,87825.28
2022-08-02T08:58:06.609Z,87820.44
2022-08-02T09:00:36.684Z,87821.72
2022-08-02T09:03:08.851Z,87816.59
2022-08-02T09:05:41.066Z,87811.50
2022-08-02T09:08:11.307Z,87814.75
2022-08-02T09:10:48.123Z,87822.38
2022-08-02T09:13:38.664Z,87813.34
2022-08-02T09:16:14.027Z,87811.97
2022-08-02T09:18:47.084Z,87812.91
2022-08-02T09:21:17.343Z,87812.25
2022-08-02T09:23:53.735Z,87816.22
2022-08-02T09:26:24.000Z,87817.97
2022-08-02T09:28:59.977Z,87815.22
2022-08-02T09:31:27.986Z,87811.78
2022-08-02T09:34:00.747Z,87806.63
2022-08-02T09:36:45.521Z,87807.66
2022-08-02T09:39:16.090Z,87807.34
2022-08-02T09:41:45.442Z,87800.59
2022-08-02T09:44:16.177Z,87814.25
2022-08-02T09:46:46.420Z,87803.84
2022-08-02T09:49:19.189Z,87808.91
2022-08-02T09:51:46.402Z,87812.41
2022-08-02T09:54:25.849Z,87815.34
2022-08-02T09:57:01.682Z,87815.59
2022-08-02T09:59:31.161Z,87808.34
2022-08-02T10:02:17.162Z,87809.94
2022-08-02T10:04:53.289Z,87802.56
2022-08-02T10:07:22.987Z,87801.69
2022-08-02T10:09:52.560Z,87800.63
2022-08-02T10:12:21.797Z,87795.81
2022-08-02T10:14:51.200Z,87800.31
2022-08-02T10:17:20.975Z,87798.69
2022-08-02T10:20:00.532Z,87800.09
2022-08-02T10:22:33.859Z,87795.06
2022-08-02T10:25:04.436Z,87796.88
2022-08-02T10:27:49.284Z,87792.16
2022-08-02T10:30:25.225Z,87789.03
2022-08-02T10:32:56.428Z,87789.16
2022-08-02T10:35:26.691Z,87785.63
2022-08-02T10:38:00.916Z,87787.00
2022-08-02T10:40:54.271Z,87784.66
2022-08-02T10:43:36.104Z,87776.19
2022-08-02T10:46:32.439Z,87779.38
2022-08-02T10:49:29.749Z,87778.63
2022-08-02T10:52:01.576Z,87778.41
2022-08-02T10:54:40.986Z,87776.38
2022-08-02T10:57:23.046Z,87773.47
2022-08-02T11:00:00.805Z,87772.94
2022-08-02T11:02:46.616Z,87774.25
2022-08-02T11:05:42.854Z,87767.13
2022-08-02T11:08:22.595Z,87756.81
2022-08-02T11:10:50.110Z,87770.66
2022-08-02T11:13:19.162Z,87762.16
2022-08-02T11:15:54.204Z,87762.84
2022-08-02T11:18:23.762Z,87758.94
2022-08-02T11:21:28.697Z,87761.28
2022-08-02T11:24:16.793Z,87759.88
2022-08-02T11:26:45.499Z,87755.47
2022-08-02T11:29:15.846Z,87754.16
2022-08-02T11:31:53.889Z,87758.22
2022-08-02T11:34:37.472Z,87748.06
2022-08-02T11:37:06.037Z,87762.34
2022-08-02T11:39:33.250Z,87753.69
2022-08-02T11:42:01.547Z,87756.25
2022-08-02T11:44:39.083Z,87753.31
2022-08-02T11:47:06.821Z,87747.47
2022-08-02T11:49:34.445Z,87755.88
2022-08-02T11:52:07.777Z,87749.13
2022-08-02T11:54:37.483Z,87744.50
2022-08-02T11:57:21.142Z,87749.41
2022-08-02T11:59:51.089Z,87749.72
2022-08-02T12:02:20.296Z,87750.38
2022-08-02T12:04:59.615Z,87751.75
2022-08-02T12:07:45.750Z,87744.09
2022-08-02T12:10:20.698Z,87750.53
2022-08-02T12:12:59.899Z,87754.00
2022-08-02T12:15:30.465Z,87750.06
2022-08-02T12:17:58.539Z,87751.06
2022-08-02T12:20:37.171Z,87748.47
2022-08-02T12:23:05.525Z,87748.72
2022-08-02T12:25:34.066Z,87748.59
2022-08-02T12:28:17.868Z,87757.47
2022-08-02T12:30:59.109Z,87750.59
2022-08-02T12:33:45.362Z,87751.47
2022-08-02T12:36:21.267Z,87757.63
2022-08-02T12:39:00.957Z,87750.28
2022-08-02T12:41:30.577Z,87758.50
2022-08-02T12:44:00.784Z,87752.81
2022-08-02T12:46:28.298Z,87744.09
2022-08-02T12:49:17.483Z,87753.81
2022-08-02T12:51:56.902Z,87751.81
2022-08-02T12:54:39.398Z,87742.78
2022-08-02T12:57:16.746Z,87754.47
2022-08-02T12:59:51.760Z,87747.72
2022-08-02T13:02:20.125Z,87742.94
2022-08-02T13:04:49.632Z,87737.25
2022-08-02T13:07:18.832Z,87745.63
2022-08-02T13:09:46.107Z,87739.19
2022-08-02T13:12:13.594Z,87740.25
2022-08-02T13:14:41.897Z,87747.88
2022-08-02T13:17:11.690Z,87749.38
2022-08-02T13:19:39.315Z,87749.22
2022-08-02T13:22:08.456Z,87750.28
2022-08-02T13:24:55.129Z,87739.34
2022-08-02T13:27:28.566Z,87733.88
2022-08-02T13:29:57.970Z,87736.88
2022-08-02T13:32:26.292Z,87733.63
2022-08-02T13:34:53.491Z,87723.91
2022-08-02T13:37:20.899Z,87729.75
2022-08-02T13:40:11.728Z,87729.59
2022-08-02T13:42:36.072Z,87731.22
2022-08-02T13:45:12.545Z,87734.38
2022-08-02T13:48:03.432Z,87730.13
2022-08-02T13:50:32.326Z,87731.78
2022-08-02T13:52:59.636Z,87731.22
2022-08-02T13:55:26.857Z,87719.22
2022-08-02T13:57:54.349Z,87719.94
2022-08-02T14:00:35.532Z,87721.75
2022-08-02T14:03:05.838Z,87716.81
2022-08-02T14:05:39.382Z,87716.06
2022-08-02T14:08:20.805Z,87720.13
2022-08-02T14:10:49.631Z,87716.97
2022-08-02T14:13:17.827Z,87725.53
2022-08-02T14:15:45.653Z,87723.13
2022-08-02T14:18:13.693Z,87724.78
2022-08-02T14:20:41.454Z,87723.91
2022-08-02T14:23:08.769Z,87724.34
2022-08-02T14:25:35.992Z,87720.00
2022-08-02T14:28:04.886Z,87719.69
2022-08-02T14:30:32.242Z,87720.00
2022-08-02T14:32:59.798Z,87724.34
2022-08-02T14:35:27.293Z,87712.53
2022-08-02T14:37:54.537Z,87721.97
2022-08-02T14:40:27.771Z,87718.22
2022-08-02T14:42:55.609Z,87711.75
2022-08-02T14:45:22.854Z,87715.63
2022-08-02T14:47:50.072Z,87717.88
2022-08-02T14:50:18.374Z,87713.50
2022-08-02T14:52:47.542Z,87702.19
2022-08-02T14:55:18.023Z,87700.56
2022-08-02T14:57:45.263Z,87706.75
2022-08-02T15:00:13.629Z,87694.13
2022-08-02T15:02:41.034Z,87698.34
2022-08-02T15:05:08.801Z,87694.47
2022-08-02T15:07:41.247Z,87697.91
2022-08-02T15:10:10.105Z,87692.50
2022-08-02T15:12:37.275Z,87688.75
2022-08-02T15:15:05.015Z,87692.31
2022-08-02T15:17:32.216Z,87689.28
2022-08-02T15:20:05.614Z,87692.38
2022-08-02T15:27:05.742Z,87692.94
2022-08-02T15:29:34.759Z,87685.06
2022-08-02T15:32:03.145Z,87679.19
2022-08-02T15:34:30.331Z,87675.31
2022-08-02T15:36:57.581Z,87687.84
2022-08-02T15:39:25.093Z,87678.59
2022-08-02T15:41:52.289Z,87680.91
2022-08-02T15:44:19.563Z,87677.91
2022-08-02T15:46:47.064Z,87686.44
2022-08-02T15:49:14.338Z,87677.81
2022-08-02T15:51:41.657Z,87687.81
2022-08-02T15:54:09.002Z,87671.34
2022-08-02T15:56:36.233Z,87668.69
2022-08-02T15:59:03.738Z,87665.84
2022-08-02T16:01:36.868Z,87668.69
2022-08-02T16:04:07.471Z,87667.09
2022-08-02T16:06:37.322Z,87672.13
2022-08-02T16:09:05.301Z,87674.69
2022-08-02T16:11:32.615Z,87672.88
2022-08-02T16:13:59.807Z,87674.78
2022-08-02T16:16:31.008Z,87672.59
2022-08-02T16:22:38.119Z,87668.78
2022-08-02T16:25:10.075Z,87668.38
2022-08-02T16:27:59.492Z,87671.31
2022-08-02T16:30:32.383Z,87674.06
2022-08-02T16:32:59.647Z,87670.53
2022-08-02T16:35:27.092Z,87669.91
2022-08-02T16:37:54.958Z,87664.97
2022-08-02T16:40:22.746Z,87668.16
2022-08-02T16:42:50.869Z,87671.34
2022-08-02T16:45:20.938Z,87677.72
2022-08-02T16:47:56.154Z,87670.22
2022-08-02T16:50:27.257Z,87678.41
2022-08-02T16:52:57.244Z,87678.16
2022-08-02T16:55:25.879Z,87685.75
2022-08-02T16:57:57.602Z,87694.41
2022-08-02T17:00:24.861Z,87688.34
2022-08-02T17:02:52.116Z,87698.78
2022-08-02T17:05:20.999Z,87693.00
2022-08-02T17:08:07.209Z,87697.28
2022-08-02T17:10:35.770Z,87705.25
2022-08-02T17:13:11.403Z,87696.88
2022-08-02T17:16:16.657Z,87706.19
2022-08-02T17:18:28.921Z,87707.13
2022-08-02T17:20:56.110Z,87705.31
2022-08-02T17:23:23.509Z,87719.59
2022-08-02T17:26:10.915Z,87717.63
2022-08-02T17:29:03.816Z,87725.41
2022-08-02T17:31:29.406Z,87725.56
2022-08-02T17:34:16.811Z,87726.44
2022-08-02T17:36:49.705Z,87730.03
2022-08-02T17:39:20.251Z,87737.03
2022-08-02T17:41:50.587Z,87728.28
2022-08-02T17:44:37.491Z,87727.53
2022-08-02T17:47:08.763Z,87732.41
2022-08-02T17:49:44.366Z,87737.75
2022-08-02T17:52:51.022Z,87738.19
2022-08-02T17:55:09.256Z,87740.50
2022-08-02T17:57:55.723Z,87743.91
2022-08-02T18:00:23.650Z,87741.91
2022-08-02T18:02:55.101Z,87751.56
2022-08-02T18:05:39.329Z,87753.00
2022-08-02T18:08:09.552Z,87749.50
2022-08-02T18:10:37.331Z,87750.50
2022-08-02T18:13:05.483Z,87749.25
2022-08-02T18:15:33.221Z,87755.63
2022-08-02T18:18:01.053Z,87753.94
2022-08-02T18:20:28.343Z,87750.31
2022-08-02T18:22:58.757Z,87765.16
2022-08-02T18:25:37.014Z,87758.22
2022-08-02T18:28:14.469Z,87773.59
2022-08-02T18:30:43.774Z,87770.41
2022-08-02T18:35:58.280Z,87772.63
2022-08-02T18:38:27.002Z,87781.66
2022-08-02T18:40:55.543Z,87783.81
2022-08-02T18:43:25.517Z,87790.34
2022-08-02T18:46:07.450Z,87792.41
2022-08-02T18:48:46.932Z,87793.34
2022-08-02T18:51:18.543Z,87808.94
2022-08-02T18:53:46.975Z,87807.63
2022-08-02T18:56:20.313Z,87809.03
2022-08-02T18:58:56.576Z,87806.97
2022-08-02T19:01:34.381Z,87819.41
2022-08-02T19:04:04.580Z,87816.50
2022-08-02T19:06:32.303Z,87823.25
2022-08-02T19:09:11.127Z,87816.13
2022-08-02T19:11:47.578Z,87814.31
2022-08-02T19:14:27.320Z,87816.44
2022-08-02T19:16:57.283Z,87829.59
2022-08-02T19:19:28.693Z,87825.94
2022-08-02T19:22:19.061Z,87821.91
2022-08-02T19:24:48.821Z,87824.06
2022-08-02T19:27:26.049Z,87833.38
2022-08-02T19:29:59.273Z,87835.16
2022-08-02T19:32:39.923Z,87847.25
2022-08-02T19:35:19.766Z,87848.25
2022-08-02T19:38:07.704Z,87846.66
2022-08-02T19:40:38.299Z,87845.22
2022-08-02T19:44:26.945Z,87844.91
2022-08-02T19:45:57.082Z,87846.56
2022-08-02T19:48:27.254Z,87854.69
2022-08-02T19:51:01.131Z,87857.84
2022-08-02T19:53:46.711Z,87857.19
2022-08-02T19:56:20.494Z,87857.69
2022-08-02T19:58:51.272Z,87854.00
2022-08-02T20:01:23.480Z,87862.88
2022-08-02T20:03:54.963Z,87862.22
2022-08-02T20:06:29.805Z,87860.88
2022-08-02T20:09:01.319Z,87862.44
2022-08-02T20:11:34.388Z,87868.22
2022-08-02T20:14:04.661Z,87867.19
2022-08-02T20:16:34.175Z,87873.38
2022-08-02T20:19:06.648Z,87869.69
2022-08-02T20:21:37.627Z,87870.19
2022-08-02T20:24:09.973Z,87868.81
2022-08-02T20:26:40.689Z,87867.72
2022-08-02T20:29:17.490Z,87870.88
2022-08-02T20:32:04.378Z,87868.34
2022-08-02T20:34:31.720Z,87872.25
2022-08-02T20:37:56.339Z,87869.72
2022-08-02T20:39:48.426Z,87873.28
2022-08-02T20:42:23.313Z,87874.47
2022-08-02T20:44:52.789Z,87863.47
2022-08-02T20:47:28.280Z,87868.56
2022-08-02T20:50:08.796Z,87865.16
2022-08-02T20:52:37.687Z,87868.63
2022-08-02T20:55:05.581Z,87869.94
2022-08-02T20:57:49.021Z,87871.84
2022-08-02T21:00:20.768Z,87863.88
2022-08-02T21:05:54.413Z,87876.53
2022-08-02T21:08:17.254Z,87881.25
2022-08-02T21:10:50.489Z,87879.00
2022-08-02T21:13:22.994Z,87884.81
2022-08-02T21:15:52.176Z,87888.66
2022-08-02T21:18:29.836Z,87885.03
2022-08-02T21:21:02.137Z,87885.78
2022-08-02T21:23:29.566Z,87888.50
2022-08-02T21:25:57.805Z,87886.31
2022-08-02T21:28:43.695Z,87892.47
2022-08-02T21:31:14.328Z,87893.00
2022-08-02T21:33:55.195Z,87892.28
2022-08-02T21:36:33.752Z,87890.03
2022-08-02T21:39:08.061Z,87887.00
2022-08-02T21:41:46.331Z,87890.09
2022-08-02T21:44:22.725Z,87895.56
2022-08-02T21:46:55.899Z,87896.44
2022-08-02T21:49:40.928Z,87899.56
2022-08-02T21:52:14.037Z,87899.25
2022-08-02T21:54:45.296Z,87898.56
2022-08-02T21:57:15.443Z,87905.81
2022-08-02T21:59:46.471Z,87899.75
2022-08-02T22:02:16.723Z,87907.06
2022-08-02T22:04:47.944Z,87901.75
2022-08-02T22:07:17.807Z,87901.38
2022-08-02T22:10:13.136Z,87900.28
2022-08-02T22:12:42.072Z,87905.31
2022-08-02T22:15:10.488Z,87911.75
2022-08-02T22:17:53.510Z,87901.50
2022-08-02T22:20:25.392Z,87912.25
2022-08-02T22:22:56.537Z,87911.88
2022-08-02T22:25:36.440Z,87912.28
2022-08-02T22:28:35.620Z,87917.66
2022-08-02T22:30:55.109Z,87910.53
2022-08-02T22:33:33.272Z,87914.00
2022-08-02T22:36:02.042Z,87915.19
2022-08-02T22:38:29.389Z,87925.16
2022-08-02T22:40:56.665Z,87923.28
2022-08-02T22:43:23.938Z,87919.91
2022-08-02T22:45:51.529Z,87921.44
2022-08-02T22:48:18.933Z,87922.22
2022-08-02T22:51:08.610Z,87919.63
2022-08-02T22:53:36.271Z,87930.69
2022-08-02T22:56:05.597Z,87924.22
2022-08-02T22:58:33.295Z,87922.03
2022-08-02T22:58:57.683Z,87773.44
2022-08-02T23:01:01.202Z,87919.75
2022-08-02T23:03:28.877Z,87924.38
2022-08-02T23:05:56.344Z,87921.75
2022-08-02T23:08:23.964Z,87922.56
2022-08-02T23:10:51.541Z,87928.72
2022-08-02T23:13:29.194Z,87921.91
2022-08-02T23:15:56.455Z,87918.13
2022-08-02T23:18:23.740Z,87921.25
2022-08-02T23:20:50.932Z,87912.88
2022-08-02T23:23:18.169Z,87925.84
2022-08-02T23:25:45.776Z,87929.66
2022-08-02T23:28:12.966Z,87927.41
2022-08-02T23:30:40.316Z,87923.63
2022-08-02T23:33:07.945Z,87927.06
2022-08-02T23:35:35.213Z,87926.34
2022-08-02T23:38:02.479Z,87921.84
2022-08-02T23:40:39.455Z,87918.81
2022-08-02T23:43:13.733Z,87920.72
2022-08-02T23:45:45.445Z,87919.22
2022-08-02T23:48:13.218Z,87916.16
2022-08-02T23:50:40.444Z,87923.44
2022-08-02T23:53:08.347Z,87923.03
2022-08-02T23:55:35.616Z,87917.34
2022-08-02T23:58:02.850Z,87917.34
